Time;durP1;ratioP1;P1;durP2;ratioP2;P2;SDS_P1;SDS_P2;PMS_P1;PMS_P2;Temp;Humidity;BMP_temperature;BMP_pressure;BME280_temperature;BME280_humidity;BME280_pressure;Samples;Min_cycle;Max_cycle;Signal;HPM_P1;HPM_P2
2022/10/07 04:00:08;;;;;;;4.60;3.83;;;;;;;;;;6039782;23;20331;31
2022/10/07 04:10:21;;;;;;;7.73;6.93;;;;;;;;;;5748564;22;20399;-88
2022/10/07 04:12:47;;;;;;;8.73;7.57;;;;;;;;;;5000835;28;20399;-88
2022/10/07 04:15:13;;;;;;;9.52;7.93;;;;;;;;;;5026552;28;20394;-88
2022/10/07 04:17:43;;;;;;;8.40;7.07;;;;;;;;;;5024140;28;20408;-87
2022/10/07 04:20:10;;;;;;;7.82;7.13;;;;;;;;;;5017683;28;20385;-87
2022/10/07 04:22:36;;;;;;;8.60;7.80;;;;;;;;;;5018259;28;20392;-89
2022/10/07 04:27:52;;;;;;;8.35;7.55;;;;;;;;;;5015356;28;20393;-88
2022/10/07 04:30:18;;;;;;;7.97;7.30;;;;;;;;;;5015158;28;20381;-87
2022/10/07 04:32:44;;;;;;;8.55;7.15;;;;;;;;;;5018312;28;20526;-87
2022/10/07 04:35:10;;;;;;;7.93;7.13;;;;;;;;;;5018183;28;20384;-87
2022/10/07 04:37:36;;;;;;;7.43;6.80;;;;;;;;;;5018184;28;20412;-87
2022/10/07 04:40:02;;;;;;;8.73;7.57;;;;;;;;;;5000925;28;20471;-88
2022/10/07 04:45:26;;;;;;;7.72;7.03;;;;;;;;;;4987678;28;20485;-87
2022/10/07 04:47:52;;;;;;;8.48;7.57;;;;;;;;;;5015132;28;20409;-87
2022/10/07 04:50:18;;;;;;;8.10;7.35;;;;;;;;;;4997298;28;20392;-87
2022/10/07 04:52:45;;;;;;;7.93;7.18;;;;;;;;;;5014874;28;20389;-88
2022/10/07 04:55:12;;;;;;;7.47;6.78;;;;;;;;;;5014913;28;20380;-89
2022/10/07 04:57:38;;;;;;;6.88;6.18;;;;;;;;;;5014801;28;20419;-88
2022/10/07 05:00:05;;;;;;;7.10;6.40;;;;;;;;;;5015015;28;20590;-90
2022/10/07 05:02:31;;;;;;;7.82;7.13;;;;;;;;;;5014655;28;20392;-90
2022/10/07 05:04:57;;;;;;;8.20;7.40;;;;;;;;;;5014764;28;20423;-88
2022/10/07 05:07:23;;;;;;;9.40;7.72;;;;;;;;;;5014689;28;20417;-88
2022/10/07 05:09:49;;;;;;;7.60;6.90;;;;;;;;;;5014850;28;20894;-88
2022/10/07 05:12:16;;;;;;;7.37;6.37;;;;;;;;;;5014680;28;20447;-90
2022/10/07 05:14:42;;;;;;;7.40;6.70;;;;;;;;;;5014674;28;20376;-89
2022/10/07 05:17:08;;;;;;;8.17;7.00;;;;;;;;;;4996896;28;20412;-89
2022/10/07 05:19:34;;;;;;;8.32;7.57;;;;;;;;;;5014415;28;20381;-89
2022/10/07 05:22:01;;;;;;;8.68;7.93;;;;;;;;;;5014456;28;20376;-89
2022/10/07 05:24:28;;;;;;;9.57;8.65;;;;;;;;;;5014380;28;20377;-90
2022/10/07 05:26:54;;;;;;;10.27;9.27;;;;;;;;;;5014664;28;20391;-91
2022/10/07 05:29:20;;;;;;;10.45;9.15;;;;;;;;;;5014138;28;20395;-89
2022/10/07 05:31:47;;;;;;;9.57;8.70;;;;;;;;;;5014285;28;20468;-90
2022/10/07 05:34:14;;;;;;;10.00;9.10;;;;;;;;;;5014291;28;20377;-89
2022/10/07 05:36:41;;;;;;;10.05;9.10;;;;;;;;;;5014077;28;20419;-89
2022/10/07 05:39:07;;;;;;;11.35;10.30;;;;;;;;;;5014170;28;20460;-89
2022/10/07 05:41:33;;;;;;;10.50;9.43;;;;;;;;;;5013910;28;20389;-90
2022/10/07 05:44:00;;;;;;;10.85;9.63;;;;;;;;;;5014151;28;20391;-89
2022/10/07 05:46:26;;;;;;;11.05;9.95;;;;;;;;;;5014325;28;20389;-89
2022/10/07 05:48:52;;;;;;;11.73;10.63;;;;;;;;;;4996720;28;20396;-90
2022/10/07 05:51:18;;;;;;;15.32;9.60;;;;;;;;;;5017317;28;20383;-88
2022/10/07 05:53:45;;;;;;;8.70;7.85;;;;;;;;;;5014377;28;20393;-89
2022/10/07 05:56:13;;;;;;;8.40;7.53;;;;;;;;;;5007385;28;20435;-89
2022/10/07 05:58:39;;;;;;;8.60;7.85;;;;;;;;;;4994067;28;20397;-90
2022/10/07 06:01:06;;;;;;;9.63;6.93;;;;;;;;;;5011502;28;20406;-89
2022/10/07 06:03:33;;;;;;;7.05;5.70;;;;;;;;;;5009416;28;20392;-89
2022/10/07 06:05:59;;;;;;;13.75;6.38;;;;;;;;;;5013703;28;20920;-89
2022/10/07 06:08:25;;;;;;;10.65;6.28;;;;;;;;;;5013608;28;20381;-89
2022/10/07 06:13:37;;;;;;;14.43;7.07;;;;;;;;;;5028221;28;20379;-91
2022/10/07 06:16:05;;;;;;;19.27;6.88;;;;;;;;;;5002630;28;20416;-93
2022/10/07 06:18:32;;;;;;;8.75;6.70;;;;;;;;;;4997914;28;20381;-92
2022/10/07 06:26:55;;;;;;;13.50;7.70;;;;;;;;;;5176010;22;20423;-91
2022/10/07 06:28:56;;;;;;;8.88;7.50;;;;;;;;;;5029054;28;20455;-91
2022/10/07 06:31:24;;;;;;;11.32;7.78;;;;;;;;;;5041293;28;20431;-90
2022/10/07 06:33:50;;;;;;;15.48;7.70;;;;;;;;;;5037014;28;20382;-93
2022/10/07 06:36:17;;;;;;;8.90;6.90;;;;;;;;;;5046029;28;20438;-91
2022/10/07 06:38:44;;;;;;;19.00;8.32;;;;;;;;;;5041991;28;20394;-92
2022/10/07 06:41:10;;;;;;;38.47;10.00;;;;;;;;;;5033191;28;20441;-91
2022/10/07 06:43:36;;;;;;;12.68;7.60;;;;;;;;;;5033076;28;20874;-92
2022/10/07 06:46:03;;;;;;;16.42;8.82;;;;;;;;;;5035470;28;20386;-93
2022/10/07 06:48:36;;;;;;;12.00;7.88;;;;;;;;;;5034576;28;20387;-92
2022/10/07 06:51:02;;;;;;;19.40;9.07;;;;;;;;;;5037436;28;20387;-91
2022/10/07 06:53:29;;;;;;;9.23;7.40;;;;;;;;;;5045507;28;20385;-90
2022/10/07 06:55:56;;;;;;;11.95;7.97;;;;;;;;;;5031673;28;20379;-90
2022/10/07 06:58:23;;;;;;;12.38;8.57;;;;;;;;;;5032656;28;20380;-92
2022/10/07 07:00:49;;;;;;;8.88;7.25;;;;;;;;;;5028335;28;20410;-92
2022/10/07 07:03:16;;;;;;;8.23;6.70;;;;;;;;;;5029389;28;20383;-90
2022/10/07 07:05:43;;;;;;;9.77;6.50;;;;;;;;;;5030839;28;20390;-88
2022/10/07 07:08:09;;;;;;;9.15;6.38;;;;;;;;;;5032163;28;20389;-86
2022/10/07 07:10:39;;;;;;;11.35;6.20;;;;;;;;;;5031892;28;20863;-88
2022/10/07 07:13:06;;;;;;;8.45;6.60;;;;;;;;;;5032605;28;20470;-89
2022/10/07 07:15:32;;;;;;;11.25;6.55;;;;;;;;;;5032330;28;20437;-87
2022/10/07 07:17:58;;;;;;;13.20;6.97;;;;;;;;;;5032111;28;20415;-88
2022/10/07 07:20:25;;;;;;;12.30;7.03;;;;;;;;;;5032081;28;20387;-90
2022/10/07 07:22:51;;;;;;;8.63;6.35;;;;;;;;;;5032173;28;20763;-91
2022/10/07 07:25:18;;;;;;;10.95;7.43;;;;;;;;;;5032113;28;20470;-89
2022/10/07 07:27:46;;;;;;;7.18;6.43;;;;;;;;;;5032324;28;20808;-89
2022/10/07 07:30:12;;;;;;;8.88;6.70;;;;;;;;;;5032098;28;20383;-88
2022/10/07 07:32:38;;;;;;;14.48;7.70;;;;;;;;;;5032037;28;20490;-90
2022/10/07 07:35:05;;;;;;;10.38;7.97;;;;;;;;;;5032103;28;20394;-89
2022/10/07 07:37:31;;;;;;;15.45;8.65;;;;;;;;;;5032030;28;20403;-92
2022/10/07 07:39:57;;;;;;;11.25;7.82;;;;;;;;;;5032092;28;20409;-89
2022/10/07 07:42:23;;;;;;;12.27;8.13;;;;;;;;;;5032000;28;20411;-91
2022/10/07 07:44:49;;;;;;;10.80;8.20;;;;;;;;;;5031926;28;20379;-89
2022/10/07 07:47:15;;;;;;;9.85;8.85;;;;;;;;;;5037082;28;20882;-89
2022/10/07 07:49:42;;;;;;;12.57;8.93;;;;;;;;;;5037693;28;20375;-89
2022/10/07 07:52:08;;;;;;;10.68;8.98;;;;;;;;;;5031910;28;20379;-89
2022/10/07 07:54:38;;;;;;;12.27;9.27;;;;;;;;;;5031925;28;20446;-89
2022/10/07 07:57:04;;;;;;;9.25;8.35;;;;;;;;;;5031676;28;20414;-89
2022/10/07 07:59:31;;;;;;;9.55;8.68;;;;;;;;;;5023487;28;20372;-89
2022/10/07 08:01:57;;;;;;;93.75;17.90;;;;;;;;;;5031731;28;20458;-87
2022/10/07 08:04:23;;;;;;;41.78;12.30;;;;;;;;;;5031896;28;20419;-89
2022/10/07 08:06:49;;;;;;;35.70;11.32;;;;;;;;;;5031852;28;20736;-89
2022/10/07 08:09:15;;;;;;;10.77;9.53;;;;;;;;;;5031836;28;20956;-87
2022/10/07 08:11:44;;;;;;;23.33;11.20;;;;;;;;;;5031620;28;20848;-89
2022/10/07 08:14:13;;;;;;;16.25;10.18;;;;;;;;;;5031747;28;20466;-88
2022/10/07 08:16:41;;;;;;;21.42;11.40;;;;;;;;;;5031634;28;20407;-88
2022/10/07 08:19:06;;;;;;;25.27;11.53;;;;;;;;;;5034907;28;20462;-89
2022/10/07 08:21:32;;;;;;;17.52;11.05;;;;;;;;;;5035801;28;20403;-89
2022/10/07 08:23:59;;;;;;;14.90;9.77;;;;;;;;;;5035441;28;20849;-90
2022/10/07 08:26:30;;;;;;;10.25;9.25;;;;;;;;;;5035029;28;20395;-87
2022/10/07 08:28:56;;;;;;;11.60;9.17;;;;;;;;;;5029109;28;20375;-88
2022/10/07 08:31:26;;;;;;;16.47;9.90;;;;;;;;;;5035178;28;20407;-89
2022/10/07 08:33:52;;;;;;;13.15;8.73;;;;;;;;;;5032338;28;20457;-90
2022/10/07 08:36:19;;;;;;;12.05;8.95;;;;;;;;;;5035043;28;20411;-88
2022/10/07 08:38:45;;;;;;;14.30;10.23;;;;;;;;;;5035479;28;20379;-89
2022/10/07 08:41:20;;;;;;;12.95;10.23;;;;;;;;;;5035056;28;20474;-89
2022/10/07 08:43:48;;;;;;;11.88;10.07;;;;;;;;;;5034985;28;20469;-88
2022/10/07 08:46:34;;;;;;;13.30;10.17;;;;;;;;;;5035109;28;20875;-87
2022/10/07 08:49:11;;;;;;;14.20;10.38;;;;;;;;;;5035072;28;20856;-88
2022/10/07 08:51:43;;;;;;;19.33;11.05;;;;;;;;;;5034846;28;20429;-88
2022/10/07 08:54:13;;;;;;;12.60;10.50;;;;;;;;;;5035175;28;20744;-88
2022/10/07 08:56:39;;;;;;;22.08;11.98;;;;;;;;;;5034680;28;20494;-88
2022/10/07 08:59:16;;;;;;;12.65;10.68;;;;;;;;;;5026158;28;20383;-88
2022/10/07 09:02:04;;;;;;;15.98;10.00;;;;;;;;;;5034585;28;20852;-88
2022/10/07 09:04:53;;;;;;;15.50;10.30;;;;;;;;;;5034623;28;20387;-89
2022/10/07 09:07:30;;;;;;;12.45;10.27;;;;;;;;;;5034596;28;20387;-88
2022/10/07 09:10:05;;;;;;;22.73;11.68;;;;;;;;;;5034726;28;20982;-87
2022/10/07 09:12:46;;;;;;;12.50;10.23;;;;;;;;;;5034363;28;20379;-88
2022/10/07 09:15:18;;;;;;;14.50;10.23;;;;;;;;;;5034591;28;20387;-87
2022/10/07 09:17:50;;;;;;;12.40;9.90;;;;;;;;;;5033156;28;20415;-88
2022/10/07 09:20:17;;;;;;;12.70;10.85;;;;;;;;;;5034473;28;20887;-87
2022/10/07 09:22:52;;;;;;;15.40;10.02;;;;;;;;;;5034200;28;20390;-88
2022/10/07 09:25:22;;;;;;;18.52;10.60;;;;;;;;;;5034342;28;20524;-89
2022/10/07 09:27:50;;;;;;;16.73;9.80;;;;;;;;;;5034355;28;20395;-90
2022/10/07 09:30:16;;;;;;;13.70;11.40;;;;;;;;;;5033799;28;20383;-88
2022/10/07 09:32:46;;;;;;;15.00;11.63;;;;;;;;;;5033955;28;20391;-88
2022/10/07 09:35:16;;;;;;;47.65;13.60;;;;;;;;;;5034105;28;20375;-87
2022/10/07 09:38:08;;;;;;;20.88;12.48;;;;;;;;;;5034609;28;20449;-88
2022/10/07 09:43:31;;;;;;;18.53;12.57;;;;;;;;;;5034227;28;20386;-89
2022/10/07 09:45:58;;;;;;;13.55;11.43;;;;;;;;;;5034032;28;20852;-88
2022/10/07 09:48:25;;;;;;;22.20;13.20;;;;;;;;;;5032540;28;20440;-89
2022/10/07 09:50:51;;;;;;;31.65;14.13;;;;;;;;;;5033814;28;20387;-88
2022/10/07 09:53:19;;;;;;;18.80;13.13;;;;;;;;;;5033871;28;20387;-89
2022/10/07 09:55:45;;;;;;;13.02;11.82;;;;;;;;;;5033897;28;20379;-87
2022/10/07 09:58:18;;;;;;;14.98;11.40;;;;;;;;;;5024921;28;20935;-87
2022/10/07 10:00:50;;;;;;;12.50;11.20;;;;;;;;;;5033549;28;20932;-88
2022/10/07 10:03:16;;;;;;;14.20;11.98;;;;;;;;;;5035449;28;20405;-91
2022/10/07 10:05:53;;;;;;;12.85;11.20;;;;;;;;;;5035970;28;20392;-91
2022/10/07 10:08:25;;;;;;;18.52;13.25;;;;;;;;;;5026336;28;20387;-93
2022/10/07 10:10:52;;;;;;;19.48;12.23;;;;;;;;;;5035203;28;20379;-92
2022/10/07 10:13:25;;;;;;;13.07;10.93;;;;;;;;;;5038827;28;20386;-91
2022/10/07 10:15:51;;;;;;;17.85;12.65;;;;;;;;;;5043427;28;20443;-91
2022/10/07 10:18:36;;;;;;;14.40;12.90;;;;;;;;;;5049311;28;20427;-90
2022/10/07 10:21:15;;;;;;;14.27;12.88;;;;;;;;;;5026731;28;20772;-92
2022/10/07 10:23:45;;;;;;;13.10;11.90;;;;;;;;;;5032226;28;20371;-93
2022/10/07 10:26:26;;;;;;;13.32;11.88;;;;;;;;;;5045688;28;20409;-92
2022/10/07 10:28:55;;;;;;;16.17;13.45;;;;;;;;;;5028973;28;20424;-91
2022/10/07 10:31:40;;;;;;;17.00;12.63;;;;;;;;;;5035677;28;20462;-91
2022/10/07 10:34:15;;;;;;;16.90;13.32;;;;;;;;;;5032139;28;20384;-91
2022/10/07 10:36:45;;;;;;;15.13;13.43;;;;;;;;;;5032879;28;21005;-92
2022/10/07 10:39:18;;;;;;;15.27;12.80;;;;;;;;;;5034636;28;20379;-91
2022/10/07 10:41:51;;;;;;;16.02;13.57;;;;;;;;;;5033888;28;20383;-92
2022/10/07 10:44:19;;;;;;;13.75;12.38;;;;;;;;;;5034146;28;20409;-92
2022/10/07 10:46:45;;;;;;;15.52;13.38;;;;;;;;;;5037977;28;20457;-89
2022/10/07 10:49:30;;;;;;;15.10;13.40;;;;;;;;;;5043930;28;20402;-92
2022/10/07 10:52:16;;;;;;;14.60;13.05;;;;;;;;;;5032557;28;20868;-91
2022/10/07 10:55:01;;;;;;;14.77;13.20;;;;;;;;;;5037763;28;20387;-91
2022/10/07 10:57:46;;;;;;;16.37;14.67;;;;;;;;;;5019410;28;20415;-89
2022/10/07 11:00:17;;;;;;;17.85;14.73;;;;;;;;;;5044091;28;20462;-90
2022/10/07 11:02:54;;;;;;;16.83;15.10;;;;;;;;;;5033221;28;20883;-89
2022/10/07 11:05:24;;;;;;;15.00;13.50;;;;;;;;;;5033927;28;20388;-89
2022/10/07 11:07:53;;;;;;;16.13;13.35;;;;;;;;;;5039908;28;20398;-90
2022/10/07 11:10:28;;;;;;;16.02;14.27;;;;;;;;;;5043885;28;20383;-90
2022/10/07 11:12:57;;;;;;;15.10;13.50;;;;;;;;;;5031812;28;20371;-88
2022/10/07 11:15:34;;;;;;;13.50;12.20;;;;;;;;;;5028100;28;20383;-88
2022/10/07 11:18:02;;;;;;;13.37;12.07;;;;;;;;;;5031911;28;20880;-89
2022/10/07 11:20:31;;;;;;;14.73;13.05;;;;;;;;;;5032483;28;20391;-88
2022/10/07 11:23:04;;;;;;;14.45;13.05;;;;;;;;;;5033226;28;20383;-91
2022/10/07 11:25:35;;;;;;;17.45;14.73;;;;;;;;;;5026426;28;20399;-89
2022/10/07 11:28:07;;;;;;;14.98;13.48;;;;;;;;;;5033550;28;20381;-89
2022/10/07 11:30:42;;;;;;;15.13;13.63;;;;;;;;;;5039720;28;20437;-89
2022/10/07 11:33:14;;;;;;;14.88;13.40;;;;;;;;;;5034790;28;20383;-92
2022/10/07 11:35:42;;;;;;;15.57;13.95;;;;;;;;;;5032837;28;20415;-91
2022/10/07 11:38:11;;;;;;;14.13;12.68;;;;;;;;;;5031145;28;20915;-89
2022/10/07 11:40:47;;;;;;;14.73;13.30;;;;;;;;;;5031811;28;20430;-89
2022/10/07 11:43:19;;;;;;;14.45;13.07;;;;;;;;;;5034557;28;20472;-92
2022/10/07 11:45:50;;;;;;;15.20;13.60;;;;;;;;;;5042760;28;20736;-92
2022/10/07 11:48:23;;;;;;;14.75;13.27;;;;;;;;;;5035329;28;20383;-90
2022/10/07 11:50:53;;;;;;;13.38;11.95;;;;;;;;;;5043079;28;20387;-91
2022/10/07 11:53:21;;;;;;;12.23;11.07;;;;;;;;;;5036995;28;20410;-89
2022/10/07 11:56:03;;;;;;;12.57;11.35;;;;;;;;;;5044001;28;20872;-90
2022/10/07 11:58:35;;;;;;;14.15;12.20;;;;;;;;;;5038920;28;20417;-92
2022/10/07 12:01:20;;;;;;;16.73;13.07;;;;;;;;;;5037120;28;20379;-91
2022/10/07 12:03:47;;;;;;;15.48;12.57;;;;;;;;;;5037120;28;20437;-90
2022/10/07 12:06:13;;;;;;;14.23;12.63;;;;;;;;;;5047643;28;20976;-91
2022/10/07 12:08:40;;;;;;;15.77;13.10;;;;;;;;;;5041303;28;20431;-92
2022/10/07 12:11:27;;;;;;;15.25;12.15;;;;;;;;;;5042215;28;20374;-90
2022/10/07 12:13:53;;;;;;;15.98;12.55;;;;;;;;;;5031040;28;20384;-91
2022/10/07 12:16:31;;;;;;;12.40;11.27;;;;;;;;;;5039615;28;20410;-92
2022/10/07 12:19:14;;;;;;;12.05;10.90;;;;;;;;;;5037774;28;20375;-91
2022/10/07 12:21:58;;;;;;;11.82;10.63;;;;;;;;;;5017405;28;20430;-91
2022/10/07 12:24:25;;;;;;;12.57;11.27;;;;;;;;;;5046986;28;20402;-91
2022/10/07 12:26:53;;;;;;;13.48;11.35;;;;;;;;;;5045470;28;20382;-91
2022/10/07 12:29:21;;;;;;;12.15;10.82;;;;;;;;;;5043595;28;20464;-93
2022/10/07 12:31:47;;;;;;;11.07;9.90;;;;;;;;;;5049909;28;20608;-93
2022/10/07 12:34:21;;;;;;;11.38;10.15;;;;;;;;;;5035093;28;20382;-91
2022/10/07 12:36:47;;;;;;;11.52;9.60;;;;;;;;;;5036306;28;20398;-90
2022/10/07 12:39:13;;;;;;;11.63;10.43;;;;;;;;;;5036889;28;20433;-91
2022/10/07 12:41:41;;;;;;;12.43;10.07;;;;;;;;;;5037669;28;20383;-90
2022/10/07 12:44:09;;;;;;;13.55;9.68;;;;;;;;;;5035210;28;20367;-93
2022/10/07 12:46:48;;;;;;;12.85;9.93;;;;;;;;;;5030694;28;20397;-92
2022/10/07 12:49:18;;;;;;;14.80;10.18;;;;;;;;;;5039476;28;20383;-92
2022/10/07 12:51:44;;;;;;;14.55;11.70;;;;;;;;;;5031181;28;20387;-90
2022/10/07 12:54:23;;;;;;;13.75;12.27;;;;;;;;;;5035838;28;20391;-92
2022/10/07 12:56:49;;;;;;;10.82;9.70;;;;;;;;;;5050333;28;20423;-91
2022/10/07 13:02:32;;;;;;;10.07;9.05;;;;;;;;;;5038471;28;20392;-90
2022/10/07 13:04:58;;;;;;;10.85;9.18;;;;;;;;;;4997579;28;20381;-90
2022/10/07 13:07:45;;;;;;;10.68;9.05;;;;;;;;;;5020878;28;20447;-90
2022/10/07 13:10:35;;;;;;;10.02;8.95;;;;;;;;;;5034741;28;20371;-89
2022/10/07 13:13:05;;;;;;;12.52;8.50;;;;;;;;;;5021625;28;20745;-90
2022/10/07 13:15:31;;;;;;;8.93;7.53;;;;;;;;;;5034901;28;20411;-91
2022/10/07 13:18:03;;;;;;;10.80;8.20;;;;;;;;;;5034347;28;20417;-90
2022/10/07 13:20:35;;;;;;;10.27;8.10;;;;;;;;;;5034332;28;20410;-89
2022/10/07 13:23:06;;;;;;;11.13;8.60;;;;;;;;;;5034379;28;20387;-90
2022/10/07 13:25:33;;;;;;;10.63;8.48;;;;;;;;;;5045823;28;20382;-89
2022/10/07 13:27:59;;;;;;;8.30;7.25;;;;;;;;;;5037468;28;20709;-90
2022/10/07 13:30:44;;;;;;;9.93;8.00;;;;;;;;;;5036781;28;20405;-90
2022/10/07 13:33:14;;;;;;;10.75;7.88;;;;;;;;;;5033684;28;20383;-91
2022/10/07 13:35:40;;;;;;;8.43;7.55;;;;;;;;;;5035187;28;20383;-90
2022/10/07 13:38:19;;;;;;;11.00;8.32;;;;;;;;;;5037730;28;20921;-92
2022/10/07 13:40:52;;;;;;;11.65;9.23;;;;;;;;;;5034636;28;20393;-90
2022/10/07 13:43:18;;;;;;;9.45;8.55;;;;;;;;;;5034666;28;20379;-90
2022/10/07 13:45:45;;;;;;;10.27;8.40;;;;;;;;;;5044832;28;20854;-90
2022/10/07 13:48:22;;;;;;;12.43;8.55;;;;;;;;;;5038593;28;20383;-92
2022/10/07 13:50:49;;;;;;;10.20;8.52;;;;;;;;;;5043547;28;20389;-93
2022/10/07 13:53:24;;;;;;;12.00;8.10;;;;;;;;;;5037132;28;20384;-91
2022/10/07 13:55:50;;;;;;;9.88;8.65;;;;;;;;;;5034199;28;20387;-91
2022/10/07 13:58:18;;;;;;;10.63;9.15;;;;;;;;;;5039852;28;20561;-91
2022/10/07 14:00:45;;;;;;;11.23;9.10;;;;;;;;;;5042234;28;20882;-93
2022/10/07 14:03:15;;;;;;;14.35;9.45;;;;;;;;;;5038867;28;20402;-89
2022/10/07 14:05:48;;;;;;;14.00;11.13;;;;;;;;;;5039900;28;20381;-91
2022/10/07 14:08:20;;;;;;;18.73;11.82;;;;;;;;;;5040116;28;20853;-90
2022/10/07 14:11:05;;;;;;;14.82;10.02;;;;;;;;;;5050353;28;20466;-92
2022/10/07 14:13:32;;;;;;;13.40;8.30;;;;;;;;;;5044459;28;20401;-91
2022/10/07 14:15:58;;;;;;;12.30;7.55;;;;;;;;;;5036960;28;20387;-92
2022/10/07 14:18:26;;;;;;;10.77;7.75;;;;;;;;;;5033799;28;20899;-92
2022/10/07 14:20:54;;;;;;;9.40;7.93;;;;;;;;;;5034681;28;20383;-90
2022/10/07 14:23:27;;;;;;;11.15;8.23;;;;;;;;;;5046628;28;20386;-90
2022/10/07 14:25:54;;;;;;;14.07;8.23;;;;;;;;;;5033343;28;20388;-91
2022/10/07 14:28:23;;;;;;;11.48;7.82;;;;;;;;;;5045715;28;20387;-91
2022/10/07 14:37:00;;;;;;;8.90;7.80;;;;;;;;;;5033544;28;20437;-92
2022/10/07 14:39:35;;;;;;;11.02;8.07;;;;;;;;;;5031649;28;20397;-91
2022/10/07 14:42:02;;;;;;;9.35;7.72;;;;;;;;;;5027285;28;20481;-90
2022/10/07 14:44:28;;;;;;;10.55;7.80;;;;;;;;;;5039912;28;20407;-91
2022/10/07 14:47:24;;;;;;;9.27;8.20;;;;;;;;;;5047248;28;20470;-90
2022/10/07 14:49:54;;;;;;;11.02;9.40;;;;;;;;;;5024844;28;20394;-90
2022/10/07 14:52:22;;;;;;;10.93;8.90;;;;;;;;;;5044999;28;20865;-92
2022/10/07 14:54:49;;;;;;;13.70;8.98;;;;;;;;;;5033074;28;20891;-90
2022/10/07 14:57:15;;;;;;;16.02;9.40;;;;;;;;;;5031592;28;20422;-92
2022/10/07 14:59:41;;;;;;;13.45;9.07;;;;;;;;;;5025515;28;20371;-90
2022/10/07 15:02:09;;;;;;;9.70;8.70;;;;;;;;;;5032969;28;20448;-90
2022/10/07 15:04:35;;;;;;;9.70;8.60;;;;;;;;;;5032743;28;20383;-91
2022/10/07 15:07:01;;;;;;;15.73;9.97;;;;;;;;;;5032698;28;20761;-90
2022/10/07 15:09:27;;;;;;;11.85;9.63;;;;;;;;;;5032846;28;20536;-90
2022/10/07 15:11:53;;;;;;;11.10;9.35;;;;;;;;;;5042401;28;20862;-91
2022/10/07 15:14:19;;;;;;;11.77;9.60;;;;;;;;;;5034682;28;20401;-90
2022/10/07 15:16:45;;;;;;;14.27;9.30;;;;;;;;;;5032917;28;20403;-90
2022/10/07 15:19:11;;;;;;;13.37;10.07;;;;;;;;;;5033699;28;20376;-90
2022/10/07 15:21:37;;;;;;;13.68;9.88;;;;;;;;;;5045346;28;20441;-91
2022/10/07 15:24:03;;;;;;;10.73;9.63;;;;;;;;;;5045662;28;20906;-91
2022/10/07 15:26:29;;;;;;;13.32;10.80;;;;;;;;;;5038482;28;20424;-92
2022/10/07 15:28:56;;;;;;;12.82;10.27;;;;;;;;;;5043172;28;20383;-90
2022/10/07 15:31:23;;;;;;;16.02;9.95;;;;;;;;;;5037171;28;20720;-89
2022/10/07 15:33:49;;;;;;;10.73;9.70;;;;;;;;;;5042843;28;20390;-91
2022/10/07 15:36:16;;;;;;;16.20;10.80;;;;;;;;;;5046517;28;20404;-90
2022/10/07 15:38:42;;;;;;;14.50;10.20;;;;;;;;;;5033875;28;20422;-92
2022/10/07 15:41:08;;;;;;;10.57;9.50;;;;;;;;;;5032530;28;20383;-90
2022/10/07 15:43:34;;;;;;;32.08;11.23;;;;;;;;;;5029094;28;20429;-89
2022/10/07 15:46:01;;;;;;;12.43;9.55;;;;;;;;;;5044437;28;20527;-90
2022/10/07 15:48:28;;;;;;;11.27;9.20;;;;;;;;;;5034158;28;20394;-90
2022/10/07 15:50:55;;;;;;;13.50;10.38;;;;;;;;;;5032310;28;20732;-91
2022/10/07 15:53:22;;;;;;;13.90;9.48;;;;;;;;;;5046695;28;20384;-92
2022/10/07 15:55:53;;;;;;;13.07;10.25;;;;;;;;;;5040809;28;20384;-90
2022/10/07 15:58:19;;;;;;;10.97;9.60;;;;;;;;;;5038257;28;20404;-92
2022/10/07 16:00:58;;;;;;;14.00;10.73;;;;;;;;;;5044916;28;20381;-92
2022/10/07 16:03:25;;;;;;;10.40;9.38;;;;;;;;;;5046271;28;20389;-91
2022/10/07 16:05:58;;;;;;;13.02;9.05;;;;;;;;;;5028816;28;20462;-92
2022/10/07 16:08:24;;;;;;;11.15;9.35;;;;;;;;;;5038674;28;20490;-91
2022/10/07 16:13:28;;;;;;;14.32;10.07;;;;;;;;;;5941449;23;20434;-94
2022/10/07 16:15:58;;;;;;;11.25;9.07;;;;;;;;;;5033000;28;20441;-87
2022/10/07 16:18:24;;;;;;;12.85;8.38;;;;;;;;;;5013866;28;20942;-86
2022/10/07 16:20:50;;;;;;;9.73;8.18;;;;;;;;;;5013847;28;20403;-87
2022/10/07 16:23:16;;;;;;;9.43;7.67;;;;;;;;;;5031414;28;20444;-87
2022/10/07 16:25:42;;;;;;;9.82;8.40;;;;;;;;;;5023448;28;20391;-86
2022/10/07 16:30:53;;;;;;;9.95;8.52;;;;;;;;;;5031530;28;20429;-87
2022/10/07 16:33:19;;;;;;;12.23;8.32;;;;;;;;;;5031509;28;20784;-87
2022/10/07 16:35:45;;;;;;;11.00;8.10;;;;;;;;;;5031508;28;20383;-87
2022/10/07 16:38:11;;;;;;;11.38;8.70;;;;;;;;;;5031554;28;20407;-87
2022/10/07 16:40:37;;;;;;;10.38;9.27;;;;;;;;;;5035185;28;20379;-87
2022/10/07 16:43:03;;;;;;;14.05;11.57;;;;;;;;;;5035033;28;20464;-86
2022/10/07 16:45:29;;;;;;;13.30;10.95;;;;;;;;;;5035093;28;20380;-86
2022/10/07 16:47:55;;;;;;;15.13;13.57;;;;;;;;;;5035086;28;20729;-87
2022/10/07 16:50:22;;;;;;;17.20;15.40;;;;;;;;;;5031583;28;20403;-87
2022/10/07 16:52:48;;;;;;;18.60;16.80;;;;;;;;;;5026802;28;20779;-86
2022/10/07 16:55:14;;;;;;;20.63;18.48;;;;;;;;;;5035087;28;20383;-87
2022/10/07 16:57:40;;;;;;;21.20;19.10;;;;;;;;;;5034647;28;20410;-86
2022/10/07 17:00:06;;;;;;;21.20;18.90;;;;;;;;;;5034703;28;20472;-86
2022/10/07 17:02:32;;;;;;;20.10;18.00;;;;;;;;;;5034711;28;20926;-86
2022/10/07 17:04:58;;;;;;;20.38;18.25;;;;;;;;;;5017204;28;20379;-87
2022/10/07 17:07:24;;;;;;;19.35;17.42;;;;;;;;;;5034799;28;20446;-86
2022/10/07 17:09:50;;;;;;;22.07;17.90;;;;;;;;;;5034734;28;20510;-88
2022/10/07 17:12:16;;;;;;;19.73;17.15;;;;;;;;;;5016880;28;20861;-88
2022/10/07 17:14:42;;;;;;;18.80;16.90;;;;;;;;;;5034540;28;20426;-86
2022/10/07 17:17:08;;;;;;;19.80;17.80;;;;;;;;;;5034404;28;20446;-87
2022/10/07 17:19:35;;;;;;;21.30;19.10;;;;;;;;;;5034429;28;20375;-87
2022/10/07 17:22:02;;;;;;;20.67;18.15;;;;;;;;;;5034500;28;20466;-87
2022/10/07 17:24:29;;;;;;;20.48;18.38;;;;;;;;;;5035858;28;20373;-86
2022/10/07 17:26:55;;;;;;;19.50;17.52;;;;;;;;;;5045817;28;20390;-87
2022/10/07 17:29:24;;;;;;;18.70;16.92;;;;;;;;;;5034145;28;20395;-87
2022/10/07 17:31:50;;;;;;;18.02;16.27;;;;;;;;;;5034166;28;20385;-87
2022/10/07 17:34:18;;;;;;;18.65;16.75;;;;;;;;;;5034198;28;20383;-87
2022/10/07 17:36:45;;;;;;;17.52;15.77;;;;;;;;;;5034206;28;20414;-87
2022/10/07 17:39:11;;;;;;;17.23;15.55;;;;;;;;;;5016398;28;20386;-86
2022/10/07 17:41:37;;;;;;;16.35;14.65;;;;;;;;;;5033915;28;20387;-88
2022/10/07 17:44:05;;;;;;;17.55;15.70;;;;;;;;;;5033183;28;20450;-88
2022/10/07 17:46:32;;;;;;;17.73;16.02;;;;;;;;;;5034463;28;20387;-91
2022/10/07 17:48:59;;;;;;;18.08;16.27;;;;;;;;;;5025489;28;20470;-93
2022/10/07 17:57:11;;;;;;;18.25;16.45;;;;;;;;;;5211397;22;20437;-92
2022/10/07 18:03:30;;;;;;;17.92;16.20;;;;;;;;;;4975417;28;20399;-92
2022/10/07 18:06:13;;;;;;;19.17;17.30;;;;;;;;;;5398053;22;20427;-92
2022/10/07 18:09:18;;;;;;;18.77;16.98;;;;;;;;;;5035490;28;20382;-92
2022/10/07 18:17:56;;;;;;;18.35;16.63;;;;;;;;;;5044488;28;20764;-91
2022/10/07 18:20:46;;;;;;;17.23;15.70;;;;;;;;;;4985770;28;20480;-91
2022/10/07 18:27:05;;;;;;;17.38;15.68;;;;;;;;;;5822208;22;20423;-93
2022/10/07 18:29:32;;;;;;;16.08;14.68;;;;;;;;;;5067485;28;20925;-88
2022/10/07 18:31:59;;;;;;;17.13;15.38;;;;;;;;;;5052569;28;20439;-88
2022/10/07 18:34:25;;;;;;;17.17;15.50;;;;;;;;;;5049337;28;20732;-87
2022/10/07 18:36:51;;;;;;;17.08;15.52;;;;;;;;;;5050170;28;20409;-87
2022/10/07 18:39:17;;;;;;;17.42;15.55;;;;;;;;;;5051458;28;20377;-87
2022/10/07 18:41:43;;;;;;;16.33;14.73;;;;;;;;;;5052818;28;20435;-89
2022/10/07 18:44:09;;;;;;;15.65;14.27;;;;;;;;;;5051554;28;20472;-89
2022/10/07 18:46:35;;;;;;;15.63;13.93;;;;;;;;;;5052471;28;20506;-89
2022/10/07 18:49:01;;;;;;;14.88;13.50;;;;;;;;;;5052790;28;20451;-89
2022/10/07 18:51:27;;;;;;;16.45;14.18;;;;;;;;;;5051716;28;20516;-88
2022/10/07 18:53:53;;;;;;;15.20;13.93;;;;;;;;;;5049528;28;20454;-88
2022/10/07 18:56:20;;;;;;;15.43;14.10;;;;;;;;;;5050957;28;20405;-88
2022/10/07 18:58:47;;;;;;;15.57;14.07;;;;;;;;;;5050447;28;20417;-89
2022/10/07 19:01:15;;;;;;;14.77;13.43;;;;;;;;;;5051753;28;20377;-89
2022/10/07 19:03:41;;;;;;;14.73;13.38;;;;;;;;;;5051109;28;20377;-89
2022/10/07 19:06:12;;;;;;;15.90;14.30;;;;;;;;;;5051925;28;20382;-89
2022/10/07 19:08:38;;;;;;;16.60;14.88;;;;;;;;;;5051518;28;20385;-87
2022/10/07 19:11:08;;;;;;;16.08;14.48;;;;;;;;;;5050508;28;20378;-88
2022/10/07 19:13:46;;;;;;;16.10;14.48;;;;;;;;;;5049898;28;20405;-87
2022/10/07 19:16:12;;;;;;;16.80;15.05;;;;;;;;;;5053504;28;20876;-89
2022/10/07 19:18:38;;;;;;;18.60;16.73;;;;;;;;;;5052064;28;20386;-89
2022/10/07 19:21:04;;;;;;;19.77;17.70;;;;;;;;;;5050836;28;20469;-89
2022/10/07 19:23:30;;;;;;;19.15;17.35;;;;;;;;;;5042007;28;20967;-92
2022/10/07 19:25:57;;;;;;;20.05;17.95;;;;;;;;;;5042665;28;20440;-89
2022/10/07 19:28:24;;;;;;;20.37;18.27;;;;;;;;;;5048941;28;20774;-89
2022/10/07 19:30:51;;;;;;;19.70;17.60;;;;;;;;;;5052753;28;20457;-89
2022/10/07 19:33:17;;;;;;;18.90;17.10;;;;;;;;;;5037724;28;20478;-89
2022/10/07 19:35:43;;;;;;;19.13;16.95;;;;;;;;;;5036853;28;20397;-89